Geneseo, New York
Current Conditions -  °F | °C
As of 1:34 PM on Monday 26 Jan 2015 (Local Time) from KDSV Reporting Station
Light Snow Light Snow  
Wind Chill:   Ceiling: 1500
Heat Index: 15°   Visibility: 0.75mi
Dew Point: 11°   Wind: 6mph
Humidity: 84%   Direction: 340°NNW
Pressure: 29.89"   Gusts: NA
Location:  42.79°N, 77.82°W
Report Text: KDSV 261834Z AUTO 34005KT 3/4SM -SN BR VV015 M09/M12 A2989 RMK AO2 P0000 T10941117
Loading
Personal Weather Stations






























Interactive Weather Map New forecast layout! Learn more

10-Day Weather Forecast

Advertisements
Track Severe Weather on mobile